createdAt,value
2019-04-06T04:00:43.028Z,987.68
2019-04-06T04:01:43.046Z,987.73
2019-04-06T04:02:43.017Z,987.66
2019-04-06T04:03:43.003Z,987.71
2019-04-06T04:04:42.976Z,987.63
2019-04-06T04:05:42.976Z,987.66
2019-04-06T04:06:50.505Z,987.65
2019-04-06T04:07:51.487Z,987.64
2019-04-06T04:08:50.485Z,987.66
2019-04-06T04:09:50.546Z,987.68
2019-04-06T04:10:43.293Z,987.69
2019-04-06T04:11:42.898Z,987.63
2019-04-06T04:12:42.901Z,987.55
2019-04-06T04:13:42.881Z,987.57
2019-04-06T04:14:42.959Z,987.54
2019-04-06T04:15:42.887Z,987.54
2019-04-06T04:16:42.872Z,987.52
2019-04-06T04:17:42.842Z,987.54
2019-04-06T04:18:42.825Z,987.58
2019-04-06T04:19:42.813Z,987.54
2019-04-06T04:20:42.884Z,987.55
2019-04-06T04:21:42.808Z,987.68
2019-04-06T04:22:42.946Z,987.73
2019-04-06T04:23:42.926Z,987.60
2019-04-06T04:24:42.766Z,987.66
2019-04-06T04:25:42.752Z,987.61
2019-04-06T04:26:42.755Z,987.66
2019-04-06T04:27:42.944Z,987.61
2019-04-06T04:28:42.841Z,987.63
2019-04-06T04:29:42.707Z,987.62
2019-04-06T04:30:42.706Z,987.65
2019-04-06T04:31:42.691Z,987.62
2019-04-06T04:32:42.690Z,987.59
2019-04-06T04:33:42.735Z,987.69
2019-04-06T04:34:42.669Z,987.68
2019-04-06T04:35:42.660Z,987.69
2019-04-06T04:36:42.635Z,987.68
2019-04-06T04:37:42.769Z,987.76
2019-04-06T04:38:42.608Z,987.71
2019-04-06T04:39:42.600Z,987.71
2019-04-06T04:40:42.597Z,987.68
2019-04-06T04:41:42.597Z,987.66
2019-04-06T04:42:42.573Z,987.70
2019-04-06T04:43:42.570Z,987.70
2019-04-06T04:44:42.702Z,987.72
2019-04-06T04:45:42.550Z,987.68
2019-04-06T04:46:42.532Z,987.71
2019-04-06T04:47:42.534Z,987.76
2019-04-06T04:48:42.527Z,987.79
2019-04-06T04:49:42.728Z,987.74
2019-04-06T04:50:42.509Z,987.78
2019-04-06T04:51:42.476Z,987.75
2019-04-06T04:52:42.462Z,987.79
2019-04-06T04:53:42.631Z,987.83
2019-04-06T04:54:42.454Z,987.86
2019-04-06T04:55:42.434Z,987.85
2019-04-06T04:56:42.421Z,987.80
2019-04-06T04:57:45.003Z,987.83
2019-04-06T04:58:42.395Z,987.85
2019-04-06T04:59:42.409Z,987.89
2019-04-06T05:00:42.376Z,987.83
2019-04-06T05:01:42.365Z,987.88
2019-04-06T05:02:42.475Z,987.85
2019-04-06T05:03:42.340Z,987.88
2019-04-06T05:04:42.341Z,987.88
2019-04-06T05:05:42.360Z,987.90
2019-04-06T05:06:42.311Z,987.91
2019-04-06T05:07:42.320Z,987.86
2019-04-06T05:08:42.296Z,987.97
2019-04-06T05:09:42.285Z,987.93
2019-04-06T05:10:42.266Z,987.94
2019-04-06T05:11:42.255Z,987.98
2019-04-06T05:12:42.243Z,987.94
2019-04-06T05:13:42.390Z,987.95
2019-04-06T05:14:42.374Z,987.96
2019-04-06T05:15:42.248Z,987.95
2019-04-06T05:16:42.201Z,987.96
2019-04-06T05:17:42.194Z,987.97
2019-04-06T05:18:42.208Z,987.94
2019-04-06T05:19:42.314Z,987.99
2019-04-06T05:20:42.294Z,987.99
2019-04-06T05:21:42.146Z,988.02
2019-04-06T05:22:42.135Z,987.92
2019-04-06T05:23:42.126Z,987.98
2019-04-06T05:24:42.120Z,988.03
2019-04-06T05:25:42.126Z,988.07
2019-04-06T05:26:42.109Z,988.03
2019-04-06T05:27:51.290Z,988.00
2019-04-06T05:28:43.077Z,988.03
2019-04-06T05:29:42.166Z,988.09
2019-04-06T05:30:42.197Z,988.10
2019-04-06T05:31:42.051Z,988.11
2019-04-06T05:32:42.034Z,988.15
2019-04-06T05:33:42.019Z,988.12
2019-04-06T05:34:42.039Z,988.15
2019-04-06T05:35:41.996Z,988.04
2019-04-06T05:36:43.217Z,988.04
2019-04-06T05:37:42.553Z,988.11
2019-04-06T05:38:42.171Z,988.09
2019-04-06T05:39:42.251Z,988.11
2019-04-06T05:40:42.163Z,988.12
2019-04-06T05:41:41.952Z,988.14
2019-04-06T05:43:42.928Z,988.16
2019-04-06T05:44:41.994Z,988.18
2019-04-06T05:45:41.928Z,988.16
2019-04-06T05:46:41.914Z,988.10
2019-04-06T05:47:41.906Z,988.12
2019-04-06T05:48:42.053Z,988.18
2019-04-06T05:49:41.876Z,988.18
2019-04-06T05:50:41.936Z,988.23
2019-04-06T05:51:41.905Z,988.12
2019-04-06T05:52:41.874Z,988.17
2019-04-06T05:53:42.046Z,988.21
2019-04-06T05:54:41.824Z,988.21
2019-04-06T05:55:41.883Z,988.18
2019-04-06T05:56:41.805Z,988.22
2019-04-06T05:57:41.977Z,988.18
2019-04-06T05:58:44.146Z,988.23
2019-04-06T05:59:41.745Z,988.21
2019-04-06T06:00:41.794Z,988.22
2019-04-06T06:01:41.721Z,988.26
2019-04-06T06:02:41.977Z,988.21
2019-04-06T06:03:41.781Z,988.24
2019-04-06T06:04:41.716Z,988.22
2019-04-06T06:05:41.847Z,988.25
2019-04-06T06:06:41.663Z,988.25
2019-04-06T06:07:41.731Z,988.21
2019-04-06T06:08:41.678Z,988.30
2019-04-06T06:09:41.754Z,988.30
2019-04-06T06:10:41.630Z,988.28
2019-04-06T06:11:41.668Z,988.29
2019-04-06T06:12:41.654Z,988.35
2019-04-06T06:13:41.615Z,988.37
2019-04-06T06:14:41.633Z,988.30
2019-04-06T06:15:41.572Z,988.31
2019-04-06T06:16:41.679Z,988.26
2019-04-06T06:17:41.647Z,988.26
2019-04-06T06:18:41.551Z,988.26
2019-04-06T06:19:41.526Z,988.33
2019-04-06T06:20:41.513Z,988.31
2019-04-06T06:21:41.496Z,988.34
2019-04-06T06:22:41.487Z,988.22
2019-04-06T06:23:49.032Z,988.26
2019-04-06T06:24:49.010Z,988.28
2019-04-06T06:25:48.987Z,988.26
2019-04-06T06:26:49.087Z,988.26
2019-04-06T06:27:41.598Z,988.27
2019-04-06T06:28:41.418Z,988.29
2019-04-06T06:29:41.428Z,988.31
2019-04-06T06:30:41.415Z,988.31
2019-04-06T06:31:41.578Z,988.27
2019-04-06T06:32:41.379Z,988.31
2019-04-06T06:33:41.368Z,988.33
2019-04-06T06:34:41.639Z,988.29
2019-04-06T06:35:41.355Z,988.32
2019-04-06T06:36:41.335Z,988.30
2019-04-06T06:37:41.333Z,988.37
2019-04-06T06:38:41.465Z,988.37
2019-04-06T06:39:41.467Z,988.37
2019-04-06T06:40:41.311Z,988.37
2019-04-06T06:41:41.279Z,988.35
2019-04-06T06:42:41.275Z,988.34
2019-04-06T06:43:41.263Z,988.39
2019-04-06T06:44:41.253Z,988.37
2019-04-06T06:45:41.236Z,988.36
2019-04-06T06:46:41.237Z,988.34
2019-04-06T06:47:41.214Z,988.33
2019-04-06T06:48:43.000Z,988.40
2019-04-06T06:49:41.206Z,988.37
2019-04-06T06:50:41.188Z,988.39
2019-04-06T06:51:41.186Z,988.28
2019-04-06T06:52:41.257Z,988.30
2019-04-06T06:53:41.155Z,988.31
2019-04-06T06:54:41.138Z,988.30
2019-04-06T06:55:41.139Z,988.28
2019-04-06T06:56:41.135Z,988.33
2019-04-06T06:57:41.110Z,988.27
2019-04-06T06:58:41.099Z,988.30
2019-04-06T06:59:41.086Z,988.31
2019-04-06T07:00:41.073Z,988.31
2019-04-06T07:01:41.070Z,988.30
2019-04-06T07:02:41.078Z,988.34
2019-04-06T07:03:41.044Z,988.28
2019-04-06T07:04:41.040Z,988.28
2019-04-06T07:05:41.024Z,988.28
2019-04-06T07:06:41.021Z,988.30
2019-04-06T07:07:41.016Z,988.31
2019-04-06T07:08:40.999Z,988.25
2019-04-06T07:09:41.137Z,988.25
2019-04-06T07:10:40.994Z,988.29
2019-04-06T07:11:41.159Z,988.27
2019-04-06T07:12:40.959Z,988.23
2019-04-06T07:13:40.933Z,988.26
2019-04-06T07:14:40.928Z,988.25
2019-04-06T07:15:43.129Z,988.29
2019-04-06T07:16:41.010Z,988.21
2019-04-06T07:17:41.109Z,988.23
2019-04-06T07:18:40.879Z,988.22
2019-04-06T07:19:40.868Z,988.25
2019-04-06T07:20:40.859Z,988.29
2019-04-06T07:21:41.069Z,988.23
2019-04-06T07:22:40.909Z,988.28
2019-04-06T07:23:40.838Z,988.30
2019-04-06T07:24:40.820Z,988.23
2019-04-06T07:25:40.818Z,988.22
2019-04-06T07:26:41.816Z,988.21
2019-04-06T07:27:40.804Z,988.26
2019-04-06T07:28:40.775Z,988.24
2019-04-06T07:29:40.766Z,988.25
2019-04-06T07:30:40.756Z,988.23
2019-04-06T07:31:40.741Z,988.26
2019-04-06T07:32:40.741Z,988.29
2019-04-06T07:33:40.737Z,988.23
2019-04-06T07:34:40.712Z,988.26
2019-04-06T07:35:40.701Z,988.22
2019-04-06T07:36:40.689Z,988.30
2019-04-06T07:37:40.827Z,988.27
2019-04-06T07:38:40.671Z,988.27
2019-04-06T07:39:40.666Z,988.23
2019-04-06T07:40:40.687Z,988.25
2019-04-06T07:41:40.713Z,988.18
2019-04-06T07:42:40.622Z,988.23
2019-04-06T07:43:40.621Z,988.25
2019-04-06T07:44:40.600Z,988.20
2019-04-06T07:45:40.601Z,988.21
2019-04-06T07:46:40.577Z,988.14
2019-04-06T07:47:40.567Z,988.19
2019-04-06T07:48:40.554Z,988.18
2019-04-06T07:49:40.547Z,988.16
2019-04-06T07:50:40.539Z,988.24
2019-04-06T07:51:40.516Z,988.19
2019-04-06T07:52:40.507Z,988.22
2019-04-06T07:53:40.689Z,988.22
2019-04-06T07:54:40.488Z,988.19
2019-04-06T07:55:40.629Z,988.19
2019-04-06T07:56:40.465Z,988.23
2019-04-06T07:57:40.457Z,988.24
2019-04-06T07:58:48.606Z,988.20
2019-04-06T07:59:41.428Z,988.17
2019-04-06T08:00:40.517Z,988.15
2019-04-06T08:01:40.426Z,988.14
2019-04-06T08:02:40.640Z,988.18
2019-04-06T08:03:40.386Z,988.19
2019-04-06T08:04:40.380Z,988.25
2019-04-06T08:05:40.381Z,988.20
2019-04-06T08:06:40.443Z,988.25
2019-04-06T08:07:40.361Z,988.25
2019-04-06T08:08:40.341Z,988.30
2019-04-06T08:09:40.325Z,988.24
2019-04-06T08:10:40.308Z,988.25
2019-04-06T08:11:40.310Z,988.31
2019-04-06T08:12:40.284Z,988.28
2019-04-06T08:13:40.278Z,988.27
2019-04-06T08:14:40.401Z,988.37
2019-04-06T08:15:40.255Z,988.30
2019-04-06T08:16:40.246Z,988.34
2019-04-06T08:17:40.241Z,988.31
2019-04-06T08:18:40.216Z,988.29
2019-04-06T08:19:40.212Z,988.32
2019-04-06T08:20:40.206Z,988.29
2019-04-06T08:21:40.184Z,988.28
2019-04-06T08:22:40.242Z,988.32
2019-04-06T08:23:40.160Z,988.30
2019-04-06T08:24:40.354Z,988.27
2019-04-06T08:25:40.142Z,988.27
2019-04-06T08:26:40.167Z,988.22
2019-04-06T08:27:40.138Z,988.20
2019-04-06T08:28:40.181Z,988.26
2019-04-06T08:29:40.105Z,988.25
2019-04-06T08:30:45.959Z,988.18
2019-04-06T08:31:41.348Z,988.24
2019-04-06T08:32:40.063Z,988.21
2019-04-06T08:33:40.059Z,988.15
2019-04-06T08:34:40.053Z,988.16
2019-04-06T08:35:40.039Z,988.17
2019-04-06T08:36:40.247Z,988.20
2019-04-06T08:37:40.009Z,988.18
2019-04-06T08:38:40.001Z,988.22
2019-04-06T08:39:40.247Z,988.20
2019-04-06T08:40:39.994Z,988.18
2019-04-06T08:41:39.970Z,988.15
2019-04-06T08:42:39.951Z,988.21
2019-04-06T08:43:39.939Z,988.18
2019-04-06T08:44:39.928Z,988.24
2019-04-06T08:45:39.931Z,988.21
2019-04-06T08:46:39.915Z,988.17
2019-04-06T08:47:39.905Z,988.17
2019-04-06T08:48:39.901Z,988.13
2019-04-06T08:49:39.877Z,988.16
2019-04-06T08:50:39.873Z,988.19
2019-04-06T08:51:39.877Z,988.16
2019-04-06T08:52:39.845Z,988.17
2019-04-06T08:53:39.830Z,988.20
2019-04-06T08:54:39.818Z,988.15
2019-04-06T08:55:40.121Z,988.15
2019-04-06T08:56:39.798Z,988.11
2019-04-06T08:57:39.801Z,988.13
2019-04-06T08:58:39.778Z,988.11
2019-04-06T08:59:39.768Z,988.16
2019-04-06T09:00:40.011Z,988.15
2019-04-06T09:01:39.745Z,988.24
2019-04-06T09:02:39.767Z,988.19
2019-04-06T09:03:39.722Z,988.14
2019-04-06T09:04:39.801Z,988.23
2019-04-06T09:05:39.703Z,988.19
2019-04-06T09:06:39.700Z,988.18
2019-04-06T09:07:40.885Z,988.22
2019-04-06T09:08:39.860Z,988.19
2019-04-06T09:09:39.750Z,988.29
2019-04-06T09:10:39.657Z,988.22
2019-04-06T09:11:39.639Z,988.25
2019-04-06T09:12:39.632Z,988.23
2019-04-06T09:13:40.422Z,988.24
2019-04-06T09:14:39.607Z,988.24
2019-04-06T09:15:39.593Z,988.16
2019-04-06T09:16:39.734Z,988.18
2019-04-06T09:17:39.576Z,988.22
2019-04-06T09:18:39.576Z,988.15
2019-04-06T09:19:39.552Z,988.10
2019-04-06T09:20:39.544Z,988.15
2019-04-06T09:21:39.528Z,988.19
2019-04-06T09:22:39.515Z,988.15
2019-04-06T09:23:39.525Z,988.10
2019-04-06T09:24:39.497Z,988.19
2019-04-06T09:25:39.484Z,988.08
2019-04-06T09:26:39.473Z,988.10
2019-04-06T09:27:39.463Z,988.16
2019-04-06T09:28:39.456Z,988.15
2019-04-06T09:29:39.512Z,988.15
2019-04-06T09:30:39.631Z,988.11
2019-04-06T09:31:39.422Z,988.14
2019-04-06T09:32:39.412Z,988.11
2019-04-06T09:33:39.396Z,988.07
2019-04-06T09:34:39.570Z,988.20
2019-04-06T09:35:39.401Z,988.18
2019-04-06T09:36:39.376Z,988.10
2019-04-06T09:37:39.366Z,988.07
2019-04-06T09:38:39.345Z,988.03
2019-04-06T09:39:39.336Z,988.01
2019-04-06T09:40:39.334Z,988.00
2019-04-06T09:41:39.314Z,987.99
2019-04-06T09:42:39.306Z,988.01
2019-04-06T09:43:39.297Z,987.97
2019-04-06T09:44:39.282Z,987.98
2019-04-06T09:45:41.390Z,987.96
2019-04-06T09:46:39.256Z,987.93
2019-04-06T09:47:39.246Z,987.90
2019-04-06T09:48:39.458Z,987.88
2019-04-06T09:49:39.234Z,987.78
2019-04-06T09:50:39.283Z,987.85
2019-04-06T10:02:56.633Z,987.90
2019-04-06T10:08:47.823Z,987.84
2019-04-06T10:09:46.448Z,987.90
2019-04-06T10:10:46.025Z,987.86
2019-04-06T10:29:29.382Z,987.83
2019-04-06T10:30:16.136Z,987.86
2019-04-06T10:40:29.555Z,987.81
2019-04-06T10:41:28.840Z,987.84
2019-04-06T10:50:58.742Z,987.74
2019-04-06T10:52:12.999Z,987.78
2019-04-06T11:09:07.940Z,987.53
2019-04-06T11:10:07.835Z,987.55
2019-04-06T11:30:12.900Z,987.37
2019-04-06T11:33:47.709Z,987.47
2019-04-06T11:35:24.028Z,987.36
2019-04-06T11:39:24.209Z,987.43
2019-04-06T11:43:17.800Z,987.36
2019-04-06T11:46:57.673Z,987.37
2019-04-06T11:49:12.904Z,987.26
2019-04-06T11:50:12.810Z,987.30
2019-04-06T11:51:14.194Z,987.28
2019-04-06T11:56:03.885Z,987.41
2019-04-06T12:01:52.563Z,987.25
2019-04-06T12:05:08.299Z,987.26
2019-04-06T12:06:08.281Z,987.25
2019-04-06T12:07:08.171Z,987.23
2019-04-06T12:08:08.141Z,987.20
2019-04-06T12:09:08.157Z,987.28
2019-04-06T12:10:08.019Z,987.21
2019-04-06T12:11:20.531Z,987.21
2019-04-06T12:17:04.218Z,987.21
2019-04-06T12:18:08.436Z,987.18
2019-04-06T12:19:01.534Z,987.20
2019-04-06T12:26:24.548Z,987.16
2019-04-06T12:27:15.749Z,987.17
2019-04-06T12:28:15.747Z,987.15
2019-04-06T12:29:16.602Z,987.13
2019-04-06T12:31:32.670Z,987.06
2019-04-06T12:32:31.767Z,987.08
2019-04-06T12:33:33.734Z,987.09
2019-04-06T12:34:43.714Z,987.09
2019-04-06T12:37:25.680Z,987.03
2019-04-06T12:38:18.672Z,987.03
2019-04-06T12:39:18.344Z,987.02
2019-04-06T12:41:28.340Z,986.96
2019-04-06T12:42:27.923Z,986.96
2019-04-06T12:43:31.029Z,987.01
2019-04-06T12:44:27.812Z,987.01
2019-04-06T12:45:27.651Z,987.02
2019-04-06T12:46:28.068Z,986.95
2019-04-06T12:47:27.727Z,986.99
2019-04-06T12:48:27.729Z,986.93
2019-04-06T12:49:27.625Z,986.96
2019-04-06T12:50:27.637Z,986.97
2019-04-06T12:51:27.597Z,987.00
2019-04-06T12:52:27.577Z,986.92
2019-04-06T12:55:24.477Z,987.02
2019-04-06T12:56:25.157Z,987.00
2019-04-06T12:58:41.978Z,987.01
2019-04-06T12:59:41.313Z,987.01
2019-04-06T13:03:03.453Z,986.99
2019-04-06T13:04:02.832Z,986.96
2019-04-06T13:05:02.809Z,986.95
2019-04-06T13:06:02.833Z,986.93
2019-04-06T13:08:58.350Z,986.87
2019-04-06T13:11:22.592Z,986.92
2019-04-06T13:15:26.026Z,986.79
2019-04-06T13:16:26.537Z,986.79
2019-04-06T13:17:24.995Z,986.78
2019-04-06T13:18:25.205Z,986.77
2019-04-06T13:19:25.184Z,986.91
2019-04-06T13:20:24.966Z,986.92
2019-04-06T13:21:25.232Z,986.76
2019-04-06T13:22:25.156Z,986.82
2019-04-06T13:23:25.204Z,986.80
2019-04-06T13:29:58.312Z,986.76
2019-04-06T13:31:03.072Z,986.86
2019-04-06T13:31:58.483Z,986.86
2019-04-06T13:34:26.462Z,986.90
2019-04-06T13:35:32.316Z,986.89
2019-04-06T13:39:07.178Z,986.95
2019-04-06T13:44:47.165Z,986.95
2019-04-06T13:46:58.007Z,986.95
2019-04-06T13:50:39.349Z,986.95
2019-04-06T13:53:54.381Z,986.99
2019-04-06T13:54:54.186Z,986.86
2019-04-06T13:55:54.164Z,986.98
2019-04-06T14:02:05.031Z,986.94
2019-04-06T14:03:01.787Z,986.96
2019-04-06T14:04:53.585Z,986.99
2019-04-06T14:07:01.735Z,986.92
2019-04-06T14:18:08.030Z,986.98
2019-04-06T14:19:08.312Z,986.96
2019-04-06T14:21:33.139Z,986.98
2019-04-06T14:23:52.834Z,986.97
2019-04-06T14:24:52.936Z,986.93
2019-04-06T14:25:55.746Z,986.92
2019-04-06T14:28:23.618Z,986.95
2019-04-06T14:29:23.851Z,986.92
2019-04-06T14:32:16.211Z,987.01
2019-04-06T14:33:15.327Z,986.98
2019-04-06T14:34:15.348Z,986.99
2019-04-06T14:35:18.091Z,987.02
2019-04-06T14:36:15.193Z,987.00
2019-04-06T14:38:19.829Z,987.02
2019-04-06T14:39:19.504Z,986.98
2019-04-06T14:40:34.148Z,987.07
2019-04-06T14:41:19.869Z,987.08
2019-04-06T14:42:34.223Z,987.09
2019-04-06T14:43:20.320Z,987.12
2019-04-06T14:44:36.093Z,986.99
2019-04-06T14:46:45.125Z,987.10
2019-04-06T14:47:44.941Z,987.06
2019-04-06T14:48:45.337Z,987.06
2019-04-06T14:49:45.283Z,987.06
2019-04-06T14:50:44.963Z,987.01
2019-04-06T14:51:44.897Z,986.96
2019-04-06T14:52:44.903Z,986.92
2019-04-06T14:53:44.894Z,986.89
2019-04-06T14:54:44.876Z,986.90
2019-04-06T14:55:44.899Z,986.89
2019-04-06T14:56:44.997Z,986.95
2019-04-06T14:57:45.234Z,986.90
2019-04-06T14:58:44.837Z,987.01
2019-04-06T14:59:44.823Z,986.94
2019-04-06T15:00:45.162Z,986.86
2019-04-06T15:01:55.443Z,986.90
2019-04-06T15:02:45.781Z,986.91
2019-04-06T15:03:44.767Z,986.93
2019-04-06T15:04:44.755Z,986.95
2019-04-06T15:05:45.071Z,986.99
2019-04-06T15:06:45.155Z,986.88
2019-04-06T15:07:44.730Z,986.93
2019-04-06T15:08:44.717Z,986.98
2019-04-06T15:09:44.706Z,986.91
2019-04-06T15:10:44.947Z,986.91
2019-04-06T15:11:45.020Z,986.90
2019-04-06T15:12:44.756Z,986.88
2019-04-06T15:13:44.688Z,986.91
2019-04-06T15:14:44.740Z,986.86
2019-04-06T15:15:52.189Z,986.86
2019-04-06T15:16:52.187Z,986.82
2019-04-06T15:17:54.274Z,986.90
2019-04-06T15:18:52.152Z,986.82
2019-04-06T15:19:52.134Z,986.80
2019-04-06T15:20:44.838Z,986.83
2019-04-06T15:21:44.578Z,986.81
2019-04-06T15:22:44.579Z,986.83
2019-04-06T15:23:44.560Z,986.76
2019-04-06T15:24:44.546Z,986.81
2019-04-06T15:25:44.568Z,986.84
2019-04-06T15:26:44.523Z,986.79
2019-04-06T15:27:44.525Z,986.85
2019-04-06T15:28:44.501Z,986.85
2019-04-06T15:29:44.502Z,986.78
2019-04-06T15:30:44.482Z,986.76
2019-04-06T15:31:49.833Z,986.72
2019-04-06T15:32:45.723Z,986.68
2019-04-06T15:33:44.813Z,986.80
2019-04-06T15:34:44.436Z,986.76
2019-04-06T15:35:44.429Z,986.74
2019-04-06T15:36:44.421Z,986.73
2019-04-06T15:37:44.554Z,986.73
2019-04-06T15:38:44.397Z,986.80
2019-04-06T15:39:44.507Z,986.82
2019-04-06T15:40:44.504Z,986.80
2019-04-06T15:41:54.646Z,986.76
2019-04-06T15:42:45.365Z,986.79
2019-04-06T15:43:44.508Z,986.74
2019-04-06T15:44:44.340Z,986.75
2019-04-06T15:45:44.466Z,986.69
2019-04-06T15:46:44.639Z,986.79
2019-04-06T15:47:44.382Z,986.86
2019-04-06T15:48:44.296Z,986.78
2019-04-06T15:49:44.281Z,986.72
2019-04-06T15:50:44.522Z,986.78
2019-04-06T15:51:44.255Z,986.80
2019-04-06T15:52:44.256Z,986.76
2019-04-06T15:53:44.245Z,986.75
2019-04-06T15:54:44.228Z,986.77
2019-04-06T15:55:44.217Z,986.76
2019-04-06T15:56:44.548Z,986.72
2019-04-06T15:57:44.235Z,986.69
2019-04-06T15:58:44.512Z,986.68
2019-04-06T15:59:44.181Z,986.68
2019-04-06T16:00:44.160Z,986.66
2019-04-06T16:01:44.159Z,986.72
2019-04-06T16:02:44.155Z,986.68
2019-04-06T16:03:44.144Z,986.67
2019-04-06T16:04:44.122Z,986.78
2019-04-06T16:05:44.113Z,986.77
2019-04-06T16:06:44.153Z,986.73
2019-04-06T16:07:44.088Z,986.74
2019-04-06T16:08:44.106Z,986.76
2019-04-06T16:09:44.190Z,986.74
2019-04-06T16:10:44.103Z,986.72
2019-04-06T16:11:44.148Z,986.77
2019-04-06T16:12:44.419Z,986.75
2019-04-06T16:13:44.024Z,986.73
2019-04-06T16:14:44.029Z,986.77
2019-04-06T16:15:44.014Z,986.73
2019-04-06T16:16:43.990Z,986.71
2019-04-06T16:17:43.976Z,986.78
2019-04-06T16:18:43.986Z,986.79
2019-04-06T16:19:43.966Z,986.79
2019-04-06T16:20:44.177Z,986.68
2019-04-06T16:21:43.948Z,986.68
2019-04-06T16:22:44.251Z,986.67
2019-04-06T16:23:44.473Z,986.67
2019-04-06T16:24:44.236Z,986.64
2019-04-06T16:25:44.006Z,986.71
2019-04-06T16:26:44.132Z,986.68
2019-04-06T16:27:43.873Z,986.75
2019-04-06T16:28:43.863Z,986.70
2019-04-06T16:29:43.876Z,986.70
2019-04-06T16:30:43.840Z,986.64
2019-04-06T16:31:43.841Z,986.68
2019-04-06T16:32:43.967Z,986.65
2019-04-06T16:33:43.808Z,986.61
2019-04-06T16:34:43.816Z,986.61
2019-04-06T16:35:43.853Z,986.63
2019-04-06T16:36:43.923Z,986.54
2019-04-06T16:37:44.158Z,986.61
2019-04-06T16:38:43.751Z,986.62
2019-04-06T16:39:43.746Z,986.63
2019-04-06T16:40:43.852Z,986.61
2019-04-06T16:41:43.721Z,986.64
2019-04-06T16:42:43.707Z,986.61
2019-04-06T16:43:43.726Z,986.63
2019-04-06T16:44:44.113Z,986.66
2019-04-06T16:45:43.694Z,986.63
2019-04-06T16:46:43.696Z,986.65
2019-04-06T16:47:43.660Z,986.67
2019-04-06T16:48:43.657Z,986.57
2019-04-06T16:49:43.635Z,986.61
2019-04-06T16:50:43.635Z,986.62
2019-04-06T16:51:43.619Z,986.59
2019-04-06T16:52:43.606Z,986.55
2019-04-06T16:53:43.773Z,986.58
2019-04-06T16:54:43.597Z,986.59
2019-04-06T16:55:43.576Z,986.66
2019-04-06T16:56:43.569Z,986.64
2019-04-06T16:57:43.558Z,986.69
2019-04-06T16:58:43.599Z,986.67
2019-04-06T16:59:43.537Z,986.63
2019-04-06T17:00:43.589Z,986.62
2019-04-06T17:01:43.761Z,986.65
2019-04-06T17:02:43.495Z,986.65
2019-04-06T17:03:43.494Z,986.68
2019-04-06T17:04:44.239Z,986.57
2019-04-06T17:05:44.224Z,986.59
2019-04-06T17:06:43.860Z,986.57
2019-04-06T17:07:43.444Z,986.57
2019-04-06T17:08:43.611Z,986.66
2019-04-06T17:09:43.418Z,986.62
2019-04-06T17:10:43.859Z,986.66
2019-04-06T17:11:43.402Z,986.63
2019-04-06T17:12:43.410Z,986.65
2019-04-06T17:13:43.381Z,986.66
2019-04-06T17:14:43.673Z,986.61
2019-04-06T17:15:43.353Z,986.62
2019-04-06T17:16:43.360Z,986.62
2019-04-06T17:17:43.335Z,986.63
2019-04-06T17:18:43.332Z,986.55
2019-04-06T17:19:43.699Z,986.58
2019-04-06T17:20:43.680Z,986.60
2019-04-06T17:21:43.294Z,986.60
2019-04-06T17:22:43.287Z,986.59
2019-04-06T17:23:43.317Z,986.59
2019-04-06T17:24:43.258Z,986.63
2019-04-06T17:25:43.250Z,986.65
2019-04-06T17:26:43.309Z,986.72
2019-04-06T17:27:43.245Z,986.65
2019-04-06T17:28:43.487Z,986.63
2019-04-06T17:29:43.206Z,986.67
2019-04-06T17:30:43.200Z,986.69
2019-04-06T17:31:44.162Z,986.72
2019-04-06T17:32:50.712Z,986.73
2019-04-06T17:33:50.731Z,986.71
2019-04-06T17:34:54.318Z,986.72
2019-04-06T17:36:54.222Z,986.71
2019-04-06T17:37:54.210Z,986.73
2019-04-06T17:38:54.499Z,986.79
2019-04-06T17:39:54.186Z,986.70
2019-04-06T17:40:54.180Z,986.72
2019-04-06T17:41:54.200Z,986.75
2019-04-06T17:42:54.161Z,986.76
2019-04-06T17:43:54.294Z,986.70
2019-04-06T17:44:54.165Z,986.73
2019-04-06T17:45:54.131Z,986.77
2019-04-06T17:46:54.117Z,986.81
2019-04-06T17:47:54.526Z,986.82
2019-04-06T17:48:54.491Z,986.79
2019-04-06T17:49:54.092Z,986.75
2019-04-06T17:50:54.540Z,986.81
2019-04-06T17:51:54.060Z,986.78
2019-04-06T17:52:54.370Z,986.78
2019-04-06T17:53:54.052Z,986.83
2019-04-06T17:54:54.036Z,986.80
2019-04-06T17:55:54.028Z,986.82
2019-04-06T17:56:54.008Z,986.84
2019-04-06T17:57:53.994Z,986.81
2019-04-06T17:58:54.000Z,986.88
2019-04-06T17:59:54.131Z,986.88
2019-04-06T18:00:53.970Z,986.84
2019-04-06T18:01:53.955Z,986.83
2019-04-06T18:02:54.045Z,986.85
2019-04-06T18:03:54.045Z,986.86
2019-04-06T18:04:54.305Z,986.81
2019-04-06T18:05:53.913Z,986.83
2019-04-06T18:06:54.233Z,986.79
2019-04-06T18:07:53.890Z,986.86
2019-04-06T18:08:53.929Z,986.94
2019-04-06T18:09:53.873Z,986.90
2019-04-06T18:10:53.862Z,986.91
2019-04-06T18:11:54.174Z,986.97
2019-04-06T18:12:54.197Z,986.88
2019-04-06T18:13:53.864Z,986.87
2019-04-06T18:14:54.148Z,986.89
2019-04-06T18:15:53.821Z,986.93
2019-04-06T18:16:53.878Z,986.92
2019-04-06T18:17:53.877Z,986.92
2019-04-06T18:18:53.770Z,986.96
2019-04-06T18:19:53.763Z,986.93
2019-04-06T18:20:53.899Z,986.97
2019-04-06T18:21:53.886Z,986.97
2019-04-06T18:22:53.739Z,986.97
2019-04-06T18:23:54.251Z,987.06
2019-04-06T18:24:53.708Z,987.05
2019-04-06T18:25:53.708Z,987.03
2019-04-06T18:26:53.852Z,987.03
2019-04-06T18:27:53.676Z,987.08
2019-04-06T18:28:53.659Z,987.05
2019-04-06T18:29:53.649Z,987.03
2019-04-06T18:30:53.727Z,987.09
2019-04-06T18:31:53.701Z,987.09
2019-04-06T18:33:00.777Z,987.05
2019-04-06T18:33:54.799Z,987.05
2019-04-06T18:34:53.743Z,987.09
2019-04-06T18:35:54.089Z,987.04
2019-04-06T18:36:53.582Z,987.07
2019-04-06T18:37:53.583Z,987.10
2019-04-06T18:38:53.711Z,987.09
2019-04-06T18:39:53.592Z,987.10
2019-04-06T18:40:53.704Z,987.07
2019-04-06T18:41:53.686Z,987.07
2019-04-06T18:42:54.442Z,987.13
2019-04-06T18:43:53.551Z,987.11
2019-04-06T18:44:53.507Z,987.09
2019-04-06T18:45:53.498Z,987.10
2019-04-06T18:46:54.029Z,987.13
2019-04-06T18:47:53.480Z,987.06
2019-04-06T18:48:53.466Z,987.04
2019-04-06T18:49:53.500Z,987.04
2019-04-06T18:50:53.446Z,987.06
2019-04-06T18:51:53.622Z,987.11
2019-04-06T18:52:53.431Z,987.08
2019-04-06T18:53:53.701Z,987.17
2019-04-06T18:54:53.399Z,987.04
2019-04-06T18:55:53.800Z,987.03
2019-04-06T18:56:53.376Z,987.09
2019-04-06T18:57:53.374Z,987.12
2019-04-06T18:58:53.565Z,987.12
2019-04-06T18:59:53.771Z,987.12
2019-04-06T19:00:53.359Z,987.16
2019-04-06T19:01:53.330Z,987.17
2019-04-06T19:02:53.711Z,987.19
2019-04-06T19:03:53.309Z,987.12
2019-04-06T19:04:53.308Z,987.16
2019-04-06T19:05:53.292Z,987.16
2019-04-06T19:06:53.437Z,987.15
2019-04-06T19:07:53.260Z,987.19
2019-04-06T19:08:53.525Z,987.14
2019-04-06T19:09:53.427Z,987.17
2019-04-06T19:10:55.300Z,987.16
2019-04-06T19:11:56.425Z,987.16
2019-04-06T19:12:53.214Z,987.16
2019-04-06T19:13:53.349Z,987.21
2019-04-06T19:14:53.238Z,987.18
2019-04-06T19:15:53.544Z,987.18
2019-04-06T19:16:53.238Z,987.22
2019-04-06T19:17:53.334Z,987.15
2019-04-06T19:18:53.145Z,987.19
2019-04-06T19:19:53.840Z,987.21
2019-04-06T19:20:53.134Z,987.15
2019-04-06T19:21:53.479Z,987.20
2019-04-06T19:22:53.445Z,987.15
2019-04-06T19:23:53.089Z,987.21
2019-04-06T19:24:53.103Z,987.20
2019-04-06T19:25:53.362Z,987.19
2019-04-06T19:26:53.074Z,987.19
2019-04-06T19:27:53.592Z,987.19
2019-04-06T19:28:53.039Z,987.24
2019-04-06T19:29:53.068Z,987.28
2019-04-06T19:30:53.021Z,987.22
2019-04-06T19:31:53.011Z,987.24
2019-04-06T19:32:53.004Z,987.23
2019-04-06T19:33:53.009Z,987.19
2019-04-06T19:34:52.995Z,987.24